Time;durP1;ratioP1;P1;durP2;ratioP2;P2;SDS_P1;SDS_P2;PMS_P1;PMS_P2;Temp;Humidity;BMP_temperature;BMP_pressure;BME280_temperature;BME280_humidity;BME280_pressure;Samples;Min_cycle;Max_cycle;Signal;HPM_P1;HPM_P2
2021/11/17 02:28:10;;;;;;;;;;;20.40;62.80;;;;;;5015217;28;1355;-70
2021/11/17 02:30:43;;;;;;;;;;;20.40;62.80;;;;;;5005778;28;1425;-71
2021/11/17 02:33:18;;;;;;;;;;;20.40;62.80;;;;;;5030203;28;1360;-71
2021/11/17 02:35:49;;;;;;;;;;;20.40;62.80;;;;;;5015437;28;1623;-70
2021/11/17 02:38:17;;;;;;;;;;;20.40;62.80;;;;;;5014740;28;1952;-70
2021/11/17 02:40:52;;;;;;;;;;;20.40;62.80;;;;;;5030311;28;1649;-70
2021/11/17 02:43:21;;;;;;;;;;;20.40;62.80;;;;;;5014885;28;1391;-70
2021/11/17 02:45:59;;;;;;;;;;;20.40;62.70;;;;;;5014875;28;1437;-69
2021/11/17 02:48:43;;;;;;;;;;;20.40;62.70;;;;;;5014905;28;1660;-69
2021/11/17 02:51:18;;;;;;;;;;;20.50;62.60;;;;;;5014637;28;1678;-70
2021/11/17 02:53:43;;;;;;;;;;;20.50;62.50;;;;;;5030008;28;1674;-70
2021/11/17 02:56:27;;;;;;;;;;;20.50;62.40;;;;;;5014776;28;1906;-70
2021/11/17 02:58:59;;;;;;;;;;;20.50;62.30;;;;;;5014566;28;1538;-70
2021/11/17 03:01:28;;;;;;;;;;;20.60;62.30;;;;;;5006187;28;1213;-71
2021/11/17 03:04:12;;;;;;;;;;;20.60;62.20;;;;;;5012879;28;1351;-71
2021/11/17 03:06:52;;;;;;;;;;;20.60;62.10;;;;;;5001531;28;1488;-71
2021/11/17 03:09:20;;;;;;;;;;;20.70;62.10;;;;;;5014200;28;1645;-71
2021/11/17 03:12:01;;;;;;;;;;;20.60;61.90;;;;;;5014235;28;1556;-71
2021/11/17 03:14:32;;;;;;;;;;;20.60;61.80;;;;;;5013752;28;1243;-71
2021/11/17 03:17:01;;;;;;;;;;;20.70;61.90;;;;;;5029034;28;1910;-70
2021/11/17 03:19:38;;;;;;;;;;;20.70;61.80;;;;;;5005436;28;1206;-72
2021/11/17 03:22:39;;;;;;;;;;;20.70;61.70;;;;;;5005347;28;1321;-71
2021/11/17 03:25:16;;;;;;;;;;;20.70;61.70;;;;;;4946144;29;1434;-71
2021/11/17 03:27:41;;;;;;;;;;;20.70;61.60;;;;;;4998309;28;1523;-71
2021/11/17 03:30:25;;;;;;;;;;;20.70;61.60;;;;;;5007797;28;1526;-71
2021/11/17 03:33:12;;;;;;;;;;;20.80;61.60;;;;;;5020251;28;1817;-71
2021/11/17 03:35:41;;;;;;;;;;;20.80;61.50;;;;;;5013955;28;1340;-71
2021/11/17 03:38:22;;;;;;;;;;;20.80;61.50;;;;;;5004634;28;1898;-70
2021/11/17 03:40:48;;;;;;;;;;;20.80;61.50;;;;;;5006268;28;1420;-70
2021/11/17 03:43:23;;;;;;;;;;;20.80;61.40;;;;;;5004884;28;1384;-70
2021/11/17 03:46:01;;;;;;;;;;;20.80;61.40;;;;;;5005010;28;1352;-71
2021/11/17 03:48:29;;;;;;;;;;;20.80;61.40;;;;;;5013616;28;1092;-71
2021/11/17 03:51:02;;;;;;;;;;;20.80;61.40;;;;;;5013589;28;1136;-71
2021/11/17 03:53:31;;;;;;;;;;;20.80;61.40;;;;;;5013734;28;1356;-71
2021/11/17 03:55:56;;;;;;;;;;;20.80;61.30;;;;;;5013557;28;1096;-71
2021/11/17 03:58:27;;;;;;;;;;;20.80;61.30;;;;;;5013695;28;1986;-71
2021/11/17 04:01:03;;;;;;;;;;;20.80;61.20;;;;;;5013427;28;1120;-71
2021/11/17 04:03:31;;;;;;;;;;;20.80;61.30;;;;;;5026181;22;3780;-72
2021/11/17 04:05:56;;;;;;;;;;;20.80;61.20;;;;;;5014117;28;909;-72
2021/11/17 04:08:31;;;;;;;;;;;20.80;61.20;;;;;;5012885;28;1350;-72
2021/11/17 04:11:06;;;;;;;;;;;20.90;61.20;;;;;;5028510;28;1120;-72
2021/11/17 04:13:51;;;;;;;;;;;20.80;61.20;;;;;;5016300;28;1299;-73
2021/11/17 04:16:26;;;;;;;;;;;20.80;61.10;;;;;;5018871;28;1918;-73
2021/11/17 04:19:12;;;;;;;;;;;20.90;61.20;;;;;;5008128;28;1089;-72
2021/11/17 04:21:43;;;;;;;;;;;20.80;61.10;;;;;;4984980;28;1306;-72
2021/11/17 04:24:11;;;;;;;;;;;20.90;61.20;;;;;;5013239;28;1207;-73
2021/11/17 04:26:39;;;;;;;;;;;20.90;61.20;;;;;;5013375;28;1155;-73
2021/11/17 04:29:22;;;;;;;;;;;20.90;61.20;;;;;;5013052;28;1084;-72
2021/11/17 04:32:10;;;;;;;;;;;20.90;61.20;;;;;;4999204;28;1133;-72
2021/11/17 04:34:55;;;;;;;;;;;20.90;61.20;;;;;;5028450;28;1362;-72
2021/11/17 04:37:39;;;;;;;;;;;20.90;61.20;;;;;;5012914;28;1956;-72
2021/11/17 04:40:14;;;;;;;;;;;20.90;61.20;;;;;;5001651;28;1265;-72
2021/11/17 04:42:49;;;;;;;;;;;20.90;61.20;;;;;;5012641;28;1254;-72
2021/11/17 04:45:33;;;;;;;;;;;20.90;61.20;;;;;;5012039;28;1096;-72
2021/11/17 04:48:11;;;;;;;;;;;20.90;61.20;;;;;;5000631;28;1288;-72
2021/11/17 04:50:45;;;;;;;;;;;20.90;61.20;;;;;;5013178;28;1127;-73
2021/11/17 04:53:17;;;;;;;;;;;20.90;61.10;;;;;;5012990;28;1257;-72
2021/11/17 04:55:49;;;;;;;;;;;20.90;61.10;;;;;;5017299;28;1148;-73
2021/11/17 04:58:33;;;;;;;;;;;20.90;61.20;;;;;;5032498;28;1906;-73
2021/11/17 05:01:09;;;;;;;;;;;20.90;61.10;;;;;;5034240;28;1260;-73
2021/11/17 05:03:44;;;;;;;;;;;20.90;61.10;;;;;;5031225;28;1397;-73
2021/11/17 05:06:09;;;;;;;;;;;20.90;61.10;;;;;;5031555;28;1096;-73
2021/11/17 05:08:46;;;;;;;;;;;20.90;61.00;;;;;;5032499;28;1084;-72
2021/11/17 05:11:22;;;;;;;;;;;20.90;61.10;;;;;;5036743;28;1356;-72
2021/11/17 05:13:50;;;;;;;;;;;20.90;61.00;;;;;;5031806;28;1346;-72
2021/11/17 05:16:18;;;;;;;;;;;20.90;61.10;;;;;;5032484;28;1971;-72
2021/11/17 05:18:49;;;;;;;;;;;20.90;61.10;;;;;;5013143;28;1135;-72
2021/11/17 05:21:33;;;;;;;;;;;20.90;61.00;;;;;;5013377;28;1388;-72
2021/11/17 05:24:01;;;;;;;;;;;20.90;61.00;;;;;;5016914;28;1342;-72
2021/11/17 05:26:35;;;;;;;;;;;20.90;61.00;;;;;;5016508;28;1073;-72
2021/11/17 05:29:04;;;;;;;;;;;20.90;61.00;;;;;;5016464;28;1347;-72
2021/11/17 05:31:39;;;;;;;;;;;20.90;61.00;;;;;;5016095;28;1041;-72
2021/11/17 05:34:20;;;;;;;;;;;20.90;61.00;;;;;;5015073;28;1299;-72
2021/11/17 05:36:48;;;;;;;;;;;20.90;61.00;;;;;;5031721;28;1906;-72
2021/11/17 05:39:16;;;;;;;;;;;20.90;61.00;;;;;;5016177;28;1483;-72
2021/11/17 05:41:45;;;;;;;;;;;20.90;61.00;;;;;;5016043;28;1186;-72
2021/11/17 05:44:25;;;;;;;;;;;20.90;61.00;;;;;;5015941;28;1282;-73
2021/11/17 05:46:50;;;;;;;;;;;20.90;61.00;;;;;;5031536;28;1084;-72
2021/11/17 05:49:34;;;;;;;;;;;20.90;61.00;;;;;;5016146;28;1116;-72
2021/11/17 05:52:02;;;;;;;;;;;20.90;60.90;;;;;;5015830;28;1272;-72
2021/11/17 05:54:37;;;;;;;;;;;20.90;60.90;;;;;;5016173;28;1344;-73
2021/11/17 05:57:20;;;;;;;;;;;20.90;61.00;;;;;;5015926;28;1910;-71
2021/11/17 05:59:52;;;;;;;;;;;20.90;60.90;;;;;;5016434;28;1087;-73
2021/11/17 06:02:28;;;;;;;;;;;20.90;60.90;;;;;;5015619;28;1396;-73
2021/11/17 06:04:54;;;;;;;;;;;20.90;60.90;;;;;;5015680;28;1196;-73
2021/11/17 06:07:19;;;;;;;;;;;20.90;61.00;;;;;;5015664;28;1283;-73
2021/11/17 06:09:44;;;;;;;;;;;20.90;60.90;;;;;;5016025;28;1134;-73
2021/11/17 06:12:11;;;;;;;;;;;20.90;60.90;;;;;;5028699;28;1322;-72
2021/11/17 06:14:40;;;;;;;;;;;20.90;61.00;;;;;;5021681;28;1225;-73
2021/11/17 06:17:06;;;;;;;;;;;20.90;60.90;;;;;;5021000;28;1906;-73
2021/11/17 06:19:33;;;;;;;;;;;21.00;61.00;;;;;;5020717;28;1080;-73
2021/11/17 06:21:59;;;;;;;;;;;20.90;60.90;;;;;;5018623;28;1109;-73
2021/11/17 06:24:25;;;;;;;;;;;20.90;60.90;;;;;;5033964;28;1322;-73
2021/11/17 06:26:50;;;;;;;;;;;20.90;60.90;;;;;;5034147;28;1291;-73
2021/11/17 06:29:15;;;;;;;;;;;20.90;60.90;;;;;;5024176;28;1332;-73
2021/11/17 06:31:41;;;;;;;;;;;20.90;60.90;;;;;;5034340;28;1405;-72
2021/11/17 06:34:25;;;;;;;;;;;20.90;60.90;;;;;;5033542;28;1379;-72
2021/11/17 06:36:51;;;;;;;;;;;20.90;60.90;;;;;;5026482;28;1886;-72
2021/11/17 06:39:16;;;;;;;;;;;20.90;60.90;;;;;;5018563;28;1257;-73
2021/11/17 06:41:42;;;;;;;;;;;20.90;60.90;;;;;;5030174;28;1174;-73
2021/11/17 06:44:07;;;;;;;;;;;20.90;60.90;;;;;;5013693;28;1210;-72
2021/11/17 06:46:32;;;;;;;;;;;20.90;60.90;;;;;;5015036;28;1071;-72
2021/11/17 06:48:58;;;;;;;;;;;20.90;60.90;;;;;;5014753;28;1184;-73
2021/11/17 06:51:23;;;;;;;;;;;20.90;60.90;;;;;;5013423;28;1162;-72
2021/11/17 06:53:49;;;;;;;;;;;20.90;60.90;;;;;;5030269;28;1367;-72
2021/11/17 06:56:17;;;;;;;;;;;20.90;60.90;;;;;;5034750;28;1959;-72
2021/11/17 06:58:42;;;;;;;;;;;20.90;60.90;;;;;;5034574;28;1170;-72
2021/11/17 07:01:08;;;;;;;;;;;20.90;60.90;;;;;;5032902;28;1163;-72
2021/11/17 07:03:33;;;;;;;;;;;20.90;60.90;;;;;;5031981;28;1283;-72
2021/11/17 07:05:58;;;;;;;;;;;20.90;60.90;;;;;;5014933;28;1100;-73
2021/11/17 07:08:24;;;;;;;;;;;20.90;60.90;;;;;;5029869;28;1111;-72
2021/11/17 07:10:50;;;;;;;;;;;20.90;60.80;;;;;;5013201;28;1176;-72
2021/11/17 07:13:15;;;;;;;;;;;20.90;60.90;;;;;;5013157;28;1339;-72
2021/11/17 07:15:41;;;;;;;;;;;20.90;60.90;;;;;;5029807;28;1378;-72
2021/11/17 07:18:06;;;;;;;;;;;20.90;60.80;;;;;;5029508;28;1909;-72
2021/11/17 07:20:32;;;;;;;;;;;20.90;60.90;;;;;;5029663;28;1178;-72
2021/11/17 07:22:57;;;;;;;;;;;20.90;60.90;;;;;;5013916;28;1260;-72
2021/11/17 07:25:23;;;;;;;;;;;20.90;60.80;;;;;;5013017;28;1316;-73
2021/11/17 07:27:49;;;;;;;;;;;20.90;60.80;;;;;;5016162;28;1037;-72
2021/11/17 07:30:16;;;;;;;;;;;20.90;60.90;;;;;;5029438;28;1057;-72
2021/11/17 07:32:41;;;;;;;;;;;20.90;60.80;;;;;;5028947;28;1259;-72
2021/11/17 07:35:07;;;;;;;;;;;20.90;60.90;;;;;;5021573;28;1064;-73
2021/11/17 07:37:32;;;;;;;;;;;20.90;60.80;;;;;;5024966;28;1945;-72
2021/11/17 07:39:59;;;;;;;;;;;20.90;60.80;;;;;;5028673;28;1650;-72
2021/11/17 07:42:24;;;;;;;;;;;21.00;60.90;;;;;;5010970;28;1871;-72
2021/11/17 07:44:51;;;;;;;;;;;21.10;60.80;;;;;;5010855;28;1290;-72
2021/11/17 07:47:17;;;;;;;;;;;21.20;60.60;;;;;;5013693;28;1298;-68
2021/11/17 07:49:43;;;;;;;;;;;21.20;60.40;;;;;;5028572;28;1336;-70
2021/11/17 07:52:08;;;;;;;;;;;21.30;60.30;;;;;;5013334;28;1341;-70
2021/11/17 07:54:33;;;;;;;;;;;21.40;60.00;;;;;;5012307;28;1355;-69
2021/11/17 07:56:59;;;;;;;;;;;21.50;59.80;;;;;;5013749;28;1981;-70
2021/11/17 07:59:25;;;;;;;;;;;21.60;59.60;;;;;;5028930;28;1315;-71
2021/11/17 08:01:51;;;;;;;;;;;21.70;59.40;;;;;;5028651;28;1084;-72
2021/11/17 08:04:17;;;;;;;;;;;21.80;59.20;;;;;;5012494;28;1221;-72
2021/11/17 08:06:42;;;;;;;;;;;21.80;59.00;;;;;;5017796;28;1065;-72
2021/11/17 08:09:08;;;;;;;;;;;21.90;58.80;;;;;;5024605;28;1076;-72
2021/11/17 08:11:34;;;;;;;;;;;22.00;58.70;;;;;;5026647;28;1297;-72
2021/11/17 08:13:59;;;;;;;;;;;22.10;58.50;;;;;;5025296;28;1216;-72
2021/11/17 08:16:25;;;;;;;;;;;22.10;58.40;;;;;;5000054;28;1966;-72
2021/11/17 08:18:50;;;;;;;;;;;22.20;58.30;;;;;;5005867;28;1044;-72
2021/11/17 08:21:15;;;;;;;;;;;22.20;58.10;;;;;;5007778;28;1131;-71
2021/11/17 08:23:41;;;;;;;;;;;22.30;58.10;;;;;;5013329;28;1221;-72
2021/11/17 08:26:06;;;;;;;;;;;22.30;58.00;;;;;;5013319;28;1187;-72
2021/11/17 08:28:32;;;;;;;;;;;22.30;57.90;;;;;;5024717;28;1100;-71
2021/11/17 08:30:57;;;;;;;;;;;22.40;57.80;;;;;;5011749;28;1073;-71
2021/11/17 08:33:23;;;;;;;;;;;22.40;57.80;;;;;;5013122;28;1351;-72
2021/11/17 08:35:48;;;;;;;;;;;22.40;57.70;;;;;;5012583;28;1172;-72
2021/11/17 08:38:16;;;;;;;;;;;22.50;57.70;;;;;;5015962;28;1969;-72
2021/11/17 08:40:43;;;;;;;;;;;22.50;57.60;;;;;;4999101;28;1064;-72
2021/11/17 08:43:09;;;;;;;;;;;22.50;57.60;;;;;;5016132;28;1336;-72
2021/11/17 08:45:34;;;;;;;;;;;22.50;57.50;;;;;;4999641;28;1167;-71
2021/11/17 08:48:00;;;;;;;;;;;22.60;57.50;;;;;;5021067;28;1143;-71
2021/11/17 08:50:26;;;;;;;;;;;22.60;57.50;;;;;;5022037;28;1144;-72
2021/11/17 08:52:51;;;;;;;;;;;22.60;57.50;;;;;;4999914;28;1351;-71
2021/11/17 08:55:17;;;;;;;;;;;22.60;57.50;;;;;;5016492;28;1111;-72
2021/11/17 08:57:42;;;;;;;;;;;22.60;57.50;;;;;;5032326;28;1886;-72
2021/11/17 09:00:09;;;;;;;;;;;22.60;57.50;;;;;;5016346;28;1162;-73
2021/11/17 09:02:34;;;;;;;;;;;22.60;57.50;;;;;;5004210;28;1099;-72
2021/11/17 09:04:59;;;;;;;;;;;22.60;57.50;;;;;;5003544;28;1308;-72
2021/11/17 09:07:25;;;;;;;;;;;22.60;57.50;;;;;;5010505;28;1111;-72
2021/11/17 09:09:50;;;;;;;;;;;22.60;57.50;;;;;;5010243;28;1049;-72
2021/11/17 09:12:16;;;;;;;;;;;22.60;57.50;;;;;;5022699;28;1202;-72
2021/11/17 09:14:41;;;;;;;;;;;22.60;57.40;;;;;;5023669;28;1336;-72
2021/11/17 09:17:07;;;;;;;;;;;22.60;57.40;;;;;;5015892;28;1968;-72
2021/11/17 09:19:32;;;;;;;;;;;22.60;57.40;;;;;;5016521;28;1187;-72
2021/11/17 09:21:58;;;;;;;;;;;22.60;57.50;;;;;;5016155;28;1218;-72
2021/11/17 09:24:23;;;;;;;;;;;22.60;57.50;;;;;;5016632;28;1367;-72
2021/11/17 09:26:49;;;;;;;;;;;22.60;57.50;;;;;;5016335;28;1341;-72
2021/11/17 09:29:15;;;;;;;;;;;22.60;57.50;;;;;;5015032;28;1065;-72
2021/11/17 09:31:41;;;;;;;;;;;22.60;57.50;;;;;;5014837;28;1113;-72
2021/11/17 09:34:07;;;;;;;;;;;22.60;57.50;;;;;;5015107;28;1371;-71
2021/11/17 09:36:32;;;;;;;;;;;22.50;57.60;;;;;;5003120;28;1894;-71
2021/11/17 09:38:58;;;;;;;;;;;22.50;57.60;;;;;;5003918;28;1516;-72
2021/11/17 09:41:28;;;;;;;;;;;22.50;57.60;;;;;;5024299;28;1185;-73
2021/11/17 09:43:54;;;;;;;;;;;22.50;57.70;;;;;;5017743;28;1433;-71
2021/11/17 09:46:21;;;;;;;;;;;22.50;57.70;;;;;;5002367;28;1121;-72
2021/11/17 09:48:48;;;;;;;;;;;22.50;57.70;;;;;;5031243;28;1198;-71
2021/11/17 09:51:27;;;;;;;;;;;22.50;57.70;;;;;;5022008;28;1270;-71
2021/11/17 09:53:59;;;;;;;;;;;22.50;57.80;;;;;;5020272;28;1271;-72
2021/11/17 09:56:30;;;;;;;;;;;22.40;57.80;;;;;;5015694;28;1973;-71
2021/11/17 09:59:10;;;;;;;;;;;22.50;57.90;;;;;;5031035;28;1013;-71
2021/11/17 10:01:44;;;;;;;;;;;22.40;57.90;;;;;;5021850;28;1057;-71
2021/11/17 10:04:16;;;;;;;;;;;22.40;57.90;;;;;;5019774;23;2186;-71
2021/11/17 10:14:37;;;;;;;;;;;22.30;58.10;;;;;;5037058;28;1280;-70
2021/11/17 10:17:03;;;;;;;;;;;22.40;58.20;;;;;;5014933;28;1910;-70
2021/11/17 10:19:29;;;;;;;;;;;22.30;58.20;;;;;;5030327;28;1275;-70
2021/11/17 10:22:01;;;;;;;;;;;22.30;58.30;;;;;;5029801;28;1155;-70
2021/11/17 10:24:46;;;;;;;;;;;22.30;58.30;;;;;;5030380;28;1656;-70
2021/11/17 10:27:13;;;;;;;;;;;22.30;58.30;;;;;;5030120;28;1391;-70
2021/11/17 10:29:43;;;;;;;;;;;22.30;58.30;;;;;;5029803;28;1307;-70
2021/11/17 10:32:17;;;;;;;;;;;22.30;58.40;;;;;;5029376;28;1309;-70
2021/11/17 10:34:51;;;;;;;;;;;22.30;58.40;;;;;;5029628;28;1315;-70
2021/11/17 10:37:23;;;;;;;;;;;22.30;58.40;;;;;;5030180;28;1902;-70
2021/11/17 10:39:48;;;;;;;;;;;22.30;58.40;;;;;;5015236;28;1311;-70
2021/11/17 10:42:25;;;;;;;;;;;22.30;58.30;;;;;;5028591;28;1385;-70
2021/11/17 10:44:56;;;;;;;;;;;22.30;58.30;;;;;;5029898;28;1336;-70
2021/11/17 10:47:24;;;;;;;;;;;22.40;58.30;;;;;;5014412;28;1353;-70
2021/11/17 10:49:51;;;;;;;;;;;22.40;58.20;;;;;;5014619;28;1258;-71
2021/11/17 10:52:28;;;;;;;;;;;22.40;58.20;;;;;;5013816;28;1069;-71
2021/11/17 10:54:53;;;;;;;;;;;22.40;58.10;;;;;;5030052;28;1224;-71
2021/11/17 10:57:23;;;;;;;;;;;22.50;58.10;;;;;;5029488;28;1902;-71
2021/11/17 10:59:49;;;;;;;;;;;22.50;58.00;;;;;;5014364;28;1307;-71
2021/11/17 11:02:15;;;;;;;;;;;22.50;58.00;;;;;;5013213;28;1349;-70
2021/11/17 11:04:42;;;;;;;;;;;22.50;57.90;;;;;;5029173;28;1248;-69
2021/11/17 11:07:22;;;;;;;;;;;22.50;57.90;;;;;;5029268;28;1151;-69
2021/11/17 11:10:17;;;;;;;;;;;22.50;58.30;;;;;;5029290;28;1238;-71
2021/11/17 11:12:44;;;;;;;;;;;22.50;58.10;;;;;;4998630;28;1316;-70
2021/11/17 11:15:10;;;;;;;;;;;22.50;58.10;;;;;;5029327;28;1368;-71
2021/11/17 11:17:43;;;;;;;;;;;22.50;58.00;;;;;;5013406;28;1914;-71
2021/11/17 11:20:18;;;;;;;;;;;22.50;58.00;;;;;;5029216;28;1181;-70
2021/11/17 11:23:02;;;;;;;;;;;22.50;58.00;;;;;;5013032;28;1252;-70
2021/11/17 11:25:36;;;;;;;;;;;22.50;58.00;;;;;;5007683;28;1569;-70
2021/11/17 11:28:20;;;;;;;;;;;22.50;58.00;;;;;;5003244;28;1790;-71
2021/11/17 11:30:46;;;;;;;;;;;22.50;58.00;;;;;;5004460;28;1162;-72
2021/11/17 11:33:19;;;;;;;;;;;22.50;58.00;;;;;;5011998;28;1406;-70
2021/11/17 11:35:47;;;;;;;;;;;22.50;58.70;;;;;;5028598;28;1262;-72
2021/11/17 11:38:13;;;;;;;;;;;22.50;58.10;;;;;;5015387;28;1898;-72
2021/11/17 11:41:03;;;;;;;;;;;22.50;58.10;;;;;;5028249;28;1285;-69
2021/11/17 11:43:28;;;;;;;;;;;22.50;58.10;;;;;;5027369;28;1363;-70
2021/11/17 11:45:54;;;;;;;;;;;22.50;58.20;;;;;;5012777;28;1384;-69
2021/11/17 11:48:25;;;;;;;;;;;22.40;58.20;;;;;;4994572;28;1184;-69
2021/11/17 11:50:59;;;;;;;;;;;22.40;58.20;;;;;;5011898;28;1073;-71
2021/11/17 11:53:44;;;;;;;;;;;22.40;58.30;;;;;;5028116;28;1332;-72
2021/11/17 11:56:20;;;;;;;;;;;22.40;58.30;;;;;;4991825;28;1344;-71
2021/11/17 11:58:46;;;;;;;;;;;22.40;58.30;;;;;;5010504;28;1910;-70
2021/11/17 12:01:23;;;;;;;;;;;22.30;58.30;;;;;;5010251;28;1290;-70
2021/11/17 12:03:57;;;;;;;;;;;22.30;58.40;;;;;;5011510;28;1344;-70
2021/11/17 12:06:43;;;;;;;;;;;22.30;58.40;;;;;;5012204;28;1343;-70
2021/11/17 12:09:10;;;;;;;;;;;22.30;58.40;;;;;;5010851;28;1335;-71
2021/11/17 12:11:42;;;;;;;;;;;22.40;58.50;;;;;;5012614;28;1304;-70
2021/11/17 12:14:11;;;;;;;;;;;22.40;58.40;;;;;;5012870;28;1360;-70
2021/11/17 12:16:44;;;;;;;;;;;22.40;58.40;;;;;;5012196;28;1898;-71
2021/11/17 12:19:14;;;;;;;;;;;22.40;58.30;;;;;;5013079;28;1343;-70
2021/11/17 12:21:39;;;;;;;;;;;22.40;58.30;;;;;;5011220;28;1323;-70
2021/11/17 12:24:14;;;;;;;;;;;22.50;58.20;;;;;;5011184;28;1481;-70
2021/11/17 12:26:43;;;;;;;;;;;22.50;58.20;;;;;;5013027;28;2004;-69
2021/11/17 12:29:17;;;;;;;;;;;22.50;58.10;;;;;;5011533;28;1151;-70
2021/11/17 12:32:08;;;;;;;;;;;22.50;58.00;;;;;;4997622;28;1324;-70
2021/11/17 12:34:34;;;;;;;;;;;22.50;58.00;;;;;;4996239;28;1580;-69
2021/11/17 12:37:00;;;;;;;;;;;22.60;58.10;;;;;;5013126;28;1899;-69
2021/11/17 12:39:27;;;;;;;;;;;22.60;58.00;;;;;;5012902;28;1302;-69
2021/11/17 12:41:53;;;;;;;;;;;22.60;58.00;;;;;;5012694;28;1218;-69
2021/11/17 12:44:24;;;;;;;;;;;22.60;58.00;;;;;;5012228;28;1365;-69
2021/11/17 12:46:57;;;;;;;;;;;22.60;58.00;;;;;;5012951;28;1407;-69
2021/11/17 12:49:34;;;;;;;;;;;22.60;58.00;;;;;;5028031;28;1352;-69
2021/11/17 12:52:02;;;;;;;;;;;22.60;58.00;;;;;;5011809;28;1286;-69
2021/11/17 12:54:33;;;;;;;;;;;22.60;58.00;;;;;;5011072;28;1270;-69
2021/11/17 12:57:12;;;;;;;;;;;22.60;58.00;;;;;;5027820;28;1902;-69
2021/11/17 12:59:39;;;;;;;;;;;22.50;58.00;;;;;;5027487;28;1367;-69
2021/11/17 13:02:06;;;;;;;;;;;22.50;58.00;;;;;;5012400;28;1303;-68
2021/11/17 13:04:34;;;;;;;;;;;22.50;58.10;;;;;;5011465;28;1987;-69
2021/11/17 13:07:00;;;;;;;;;;;22.50;58.10;;;;;;5008481;28;1251;-68
2021/11/17 13:09:29;;;;;;;;;;;22.50;58.10;;;;;;5015345;28;1206;-68
2021/11/17 13:12:10;;;;;;;;;;;22.40;58.20;;;;;;5005662;28;1887;-68
2021/11/17 13:14:36;;;;;;;;;;;22.50;58.20;;;;;;5009736;28;1370;-68
2021/11/17 13:17:02;;;;;;;;;;;22.40;58.30;;;;;;4997604;28;1906;-70
2021/11/17 13:19:30;;;;;;;;;;;22.40;58.30;;;;;;5012518;28;1319;-68
2021/11/17 13:21:56;;;;;;;;;;;22.40;58.40;;;;;;5026727;28;1226;-69
2021/11/17 13:24:22;;;;;;;;;;;22.40;58.40;;;;;;5027672;28;1368;-68
2021/11/17 13:27:07;;;;;;;;;;;22.40;58.50;;;;;;5012666;28;1287;-68
2021/11/17 13:29:45;;;;;;;;;;;22.30;58.50;;;;;;5005010;28;1365;-68
2021/11/17 13:32:13;;;;;;;;;;;22.30;58.50;;;;;;5011551;28;1260;-68
2021/11/17 13:34:40;;;;;;;;;;;22.30;58.60;;;;;;5010531;28;1275;-68
2021/11/17 13:37:16;;;;;;;;;;;22.30;58.60;;;;;;5011967;28;1898;-69
2021/11/17 13:39:41;;;;;;;;;;;22.30;58.60;;;;;;5010739;28;1412;-69
2021/11/17 13:42:06;;;;;;;;;;;22.20;58.60;;;;;;5011499;28;1242;-68
2021/11/17 13:44:32;;;;;;;;;;;22.20;58.70;;;;;;5029904;28;1979;-68
2021/11/17 13:46:58;;;;;;;;;;;22.20;58.70;;;;;;5007366;28;1052;-68
2021/11/17 13:49:24;;;;;;;;;;;22.20;58.80;;;;;;5014328;28;1374;-69
2021/11/17 13:51:50;;;;;;;;;;;22.20;58.80;;;;;;5030315;28;1330;-69
2021/11/17 13:54:15;;;;;;;;;;;22.20;58.90;;;;;;5013884;28;1361;-69
2021/11/17 13:56:40;;;;;;;;;;;22.20;58.90;;;;;;5015564;28;1895;-69
2021/11/17 13:59:06;;;;;;;;;;;22.10;58.80;;;;;;5015588;28;1693;-69
2021/11/17 14:01:31;;;;;;;;;;;22.10;58.90;;;;;;5029927;28;1313;-69
2021/11/17 14:03:57;;;;;;;;;;;22.10;58.90;;;;;;5030168;28;1334;-69
2021/11/17 14:06:22;;;;;;;;;;;22.10;59.00;;;;;;5015447;28;1234;-68
2021/11/17 14:08:48;;;;;;;;;;;22.10;59.00;;;;;;5013828;28;1381;-69
2021/11/17 14:11:15;;;;;;;;;;;22.10;59.00;;;;;;5013220;28;1270;-70
2021/11/17 14:13:41;;;;;;;;;;;22.10;59.10;;;;;;5030408;28;1411;-69
2021/11/17 14:16:06;;;;;;;;;;;22.00;59.10;;;;;;5030609;28;1354;-69
2021/11/17 14:18:31;;;;;;;;;;;22.00;59.10;;;;;;5015279;28;1979;-70
2021/11/17 14:20:58;;;;;;;;;;;22.00;59.10;;;;;;5029626;28;1259;-69
2021/11/17 14:23:23;;;;;;;;;;;22.00;59.20;;;;;;5015029;28;1337;-69
2021/11/17 14:25:49;;;;;;;;;;;22.00;59.20;;;;;;5014081;28;1284;-69
2021/11/17 14:28:16;;;;;;;;;;;22.00;59.20;;;;;;5014739;28;1397;-70
2021/11/17 14:30:43;;;;;;;;;;;22.00;59.30;;;;;;5013249;28;1376;-69
2021/11/17 14:33:09;;;;;;;;;;;22.00;59.30;;;;;;5012840;28;1265;-71
2021/11/17 14:35:34;;;;;;;;;;;21.90;59.30;;;;;;5013704;28;1301;-69
2021/11/17 14:38:01;;;;;;;;;;;21.90;59.30;;;;;;5014448;28;1902;-69
2021/11/17 14:40:27;;;;;;;;;;;21.90;59.30;;;;;;5013508;28;1276;-69
2021/11/17 14:42:52;;;;;;;;;;;21.90;59.30;;;;;;5012900;28;1222;-70
2021/11/17 14:45:19;;;;;;;;;;;21.90;59.40;;;;;;5029345;28;2214;-69
2021/11/17 14:47:44;;;;;;;;;;;21.90;59.40;;;;;;5004270;28;1331;-69
2021/11/17 14:50:11;;;;;;;;;;;21.90;59.40;;;;;;5006388;28;1271;-68
2021/11/17 14:52:37;;;;;;;;;;;21.90;59.40;;;;;;5012535;28;1324;-69
2021/11/17 14:55:03;;;;;;;;;;;21.90;59.40;;;;;;5013298;28;1330;-69
2021/11/17 14:57:28;;;;;;;;;;;21.80;59.40;;;;;;5014503;28;1902;-68
2021/11/17 14:59:54;;;;;;;;;;;21.80;59.50;;;;;;5013115;28;1345;-68
2021/11/17 15:02:19;;;;;;;;;;;21.80;59.50;;;;;;5013910;28;1343;-68
2021/11/17 15:04:45;;;;;;;;;;;21.80;59.50;;;;;;5012571;28;1332;-69
2021/11/17 15:07:10;;;;;;;;;;;21.80;59.50;;;;;;5014282;28;1323;-68
2021/11/17 15:09:36;;;;;;;;;;;21.80;59.60;;;;;;5013496;28;1919;-69
2021/11/17 15:12:03;;;;;;;;;;;21.80;59.60;;;;;;5009400;28;1210;-69
2021/11/17 15:14:29;;;;;;;;;;;21.80;59.70;;;;;;5001351;28;1371;-69
2021/11/17 15:16:54;;;;;;;;;;;21.80;59.70;;;;;;5021219;28;1957;-69
2021/11/17 15:19:20;;;;;;;;;;;21.70;59.60;;;;;;5013682;28;1307;-68
2021/11/17 15:21:45;;;;;;;;;;;21.70;59.60;;;;;;5011299;28;1268;-69
2021/11/17 15:24:10;;;;;;;;;;;21.70;59.70;;;;;;5012253;28;1327;-69
2021/11/17 15:26:46;;;;;;;;;;;21.70;59.70;;;;;;5011882;28;2561;-69
2021/11/17 15:29:12;;;;;;;;;;;21.70;59.70;;;;;;5008916;28;2172;-69
2021/11/17 15:31:37;;;;;;;;;;;21.70;59.70;;;;;;5011237;28;1902;-69
2021/11/17 15:34:03;;;;;;;;;;;21.70;59.80;;;;;;5007034;28;1990;-69
2021/11/17 15:36:28;;;;;;;;;;;21.70;59.80;;;;;;5011205;28;1116;-69
2021/11/17 15:38:53;;;;;;;;;;;21.70;59.80;;;;;;5012604;28;1895;-69
2021/11/17 15:41:21;;;;;;;;;;;21.70;59.80;;;;;;5011780;28;1341;-69
2021/11/17 15:43:47;;;;;;;;;;;21.70;59.80;;;;;;5028259;28;1308;-68
2021/11/17 15:46:13;;;;;;;;;;;21.70;59.80;;;;;;5012447;28;1293;-69
2021/11/17 15:48:38;;;;;;;;;;;21.70;59.80;;;;;;5012593;28;1240;-68
2021/11/17 15:51:13;;;;;;;;;;;21.70;59.80;;;;;;5012102;28;1324;-69
2021/11/17 15:53:38;;;;;;;;;;;21.60;59.80;;;;;;5012915;28;1305;-69
2021/11/17 15:56:04;;;;;;;;;;;21.60;59.80;;;;;;5012336;28;1354;-69
2021/11/17 15:58:29;;;;;;;;;;;21.60;59.80;;;;;;5013026;28;1902;-69
2021/11/17 16:00:55;;;;;;;;;;;21.60;59.90;;;;;;5026822;28;1280;-69
2021/11/17 16:03:20;;;;;;;;;;;21.60;59.90;;;;;;5011672;28;1349;-69
2021/11/17 16:05:46;;;;;;;;;;;21.60;59.90;;;;;;5026343;28;1005;-69
2021/11/17 16:08:11;;;;;;;;;;;21.60;59.90;;;;;;5012591;28;1332;-69
2021/11/17 16:10:37;;;;;;;;;;;21.60;60.00;;;;;;5012182;28;1350;-69
2021/11/17 16:13:02;;;;;;;;;;;21.60;60.30;;;;;;5026821;28;1383;-69
2021/11/17 16:15:28;;;;;;;;;;;21.60;60.00;;;;;;5011515;28;1435;-69
2021/11/17 16:17:54;;;;;;;;;;;21.60;60.00;;;;;;5011874;28;1971;-69
2021/11/17 16:20:21;;;;;;;;;;;21.60;60.00;;;;;;5011878;28;1135;-69
2021/11/17 16:25:43;;;;;;;;;;;21.60;60.00;;;;;;5002109;22;2108;-72
2021/11/17 16:28:11;;;;;;;;;;;21.50;60.00;;;;;;5012007;28;927;-71
2021/11/17 16:30:37;;;;;;;;;;;21.50;60.00;;;;;;5023245;28;1076;-71
2021/11/17 16:33:03;;;;;;;;;;;21.50;60.10;;;;;;5022933;28;1381;-71
2021/11/17 16:35:28;;;;;;;;;;;21.50;60.10;;;;;;5025651;28;1292;-72
2021/11/17 16:37:54;;;;;;;;;;;21.50;60.10;;;;;;5032628;28;1918;-72
2021/11/17 16:40:19;;;;;;;;;;;21.50;60.10;;;;;;5032216;28;1252;-71
2021/11/17 16:42:45;;;;;;;;;;;21.50;60.20;;;;;;4999341;28;1198;-71
2021/11/17 16:45:11;;;;;;;;;;;21.50;60.20;;;;;;5012572;28;1861;-71
2021/11/17 16:47:38;;;;;;;;;;;21.50;60.20;;;;;;5010827;28;2151;-71
2021/11/17 16:50:03;;;;;;;;;;;21.50;60.20;;;;;;5010966;28;981;-71
2021/11/17 16:52:31;;;;;;;;;;;21.50;60.20;;;;;;5016397;28;1326;-71
2021/11/17 16:55:00;;;;;;;;;;;21.50;60.20;;;;;;5030619;28;1337;-70
2021/11/17 16:57:26;;;;;;;;;;;21.50;60.30;;;;;;5032312;28;1898;-69
2021/11/17 16:59:51;;;;;;;;;;;21.40;60.20;;;;;;5024364;28;1837;-69
2021/11/17 17:02:17;;;;;;;;;;;21.50;60.30;;;;;;5014895;28;2012;-70
2021/11/17 17:04:43;;;;;;;;;;;21.50;60.30;;;;;;5013377;28;1286;-69
2021/11/17 17:07:08;;;;;;;;;;;21.50;60.40;;;;;;5026224;28;1919;-69
2021/11/17 17:09:34;;;;;;;;;;;21.40;60.30;;;;;;5012161;28;1045;-69
2021/11/17 17:11:59;;;;;;;;;;;21.40;61.10;;;;;;5017871;28;1337;-69
2021/11/17 17:14:25;;;;;;;;;;;21.40;60.30;;;;;;5024113;28;1245;-70
2021/11/17 17:16:50;;;;;;;;;;;21.40;60.40;;;;;;5032455;28;1894;-69
2021/11/17 17:19:16;;;;;;;;;;;21.40;60.40;;;;;;5036349;28;1291;-69
2021/11/17 17:21:42;;;;;;;;;;;21.40;60.40;;;;;;5018776;28;1295;-69